Current Conditions
Mostly Cloudy
Conditions



Pressure
1018.96 (hPa) - 30.09 (inHG)
Visibility

9.7 (km) - 6.0 (miles)
Temperature
12  °C
Temperature
12  °C
Dewpoint
100  %
 Humidity
Wind Speed
3  kts
3  mph
5  km/h
1.3  m/s
Wind Direction
N
45°
E
90°
135°
S
180°
225°
W
270°
315°
 120°

East South
East
Airport Data
NZAA
Auckland International Airport
Metar :NZAA 221800Z AUTO 12003KT 9999 BKN024/// BKN030/// OVC049/// 12/12 Q1019
Tue 23rd April 06:00 am
Raw Metar Info
Raw METAR is the most common format in the world for the transmission of observational weather data. It is highly standardized through the International Civil Aviation Organization (ICAO), which allows it to be understood throughout most of the world.
API Info
Data Provided by
https://www.checkwx.com/weather/NZAA

Aviation Weather providing METAR, TAF, AIRMET, SIGMET and OUTLOOK Weather Reports
© Info
CSS/SVG/PHP scripts were developed by weather34 for use in the weather34 template © 2015-2024

Guide Info provided by Metar-Wikipedia